EGGP

Liverpool John Lennon Airport

Airport
ICAO code
EGGP
IATA Code
LPL
Summary
ICAO Region
EUR
ICAO Territory
Location

Speke, Liverpool, England

Serving
Liverpool
Elevation
80 ft
Coordinates
53° 20' 4" N , 2° 51' 10" W
KCC
Cfb
Metar
Observation
EGGP 120120Z AUTO 00000KT 9999 NCD 18/14 Q1021
Station
Liverpool Airport
Date/Time
2022-08-12 01:20:00
Wind direction
Wind speed
00 kts
Lowest cloud amount
no clouds detected
Temperature
18°C
Dew point
14°C
Humidity
77%
QNH
1021 hPa
Weather condition
n/a

Description

International airport serving Liverpool and environs.

Climatology

Temperate Marine climate/Oceanic climate (Köppen climate classification Cfb). Moderately cool summer and comparatively warm winter with a temperature range of only 14°C. Prevailing south-westerly winds from the Atlantic Ocean.

Runways

Designator Length Width Surface Rops
9/27 2286 46 ASP Yes/Yes

Airport map

Aerial View

SKYbrary Partners:

Safety knowledge contributed by: